createdAt,value
2019-04-25T00:01:11.568Z,10.58
2019-04-25T00:06:06.804Z,10.42
2019-04-25T00:11:01.784Z,10.40
2019-04-25T00:15:55.795Z,10.24
2019-04-25T00:20:52.217Z,10.26
2019-04-25T00:26:05.141Z,10.12
2019-04-25T00:30:59.916Z,10.24
2019-04-25T00:35:53.872Z,10.28
2019-04-25T00:40:48.058Z,10.29
2019-04-25T00:45:43.607Z,10.34
2019-04-25T00:50:38.051Z,10.22
2019-04-25T00:55:32.063Z,10.19
2019-04-25T01:00:37.032Z,10.18
2019-04-25T01:05:31.604Z,10.19
2019-04-25T01:10:25.762Z,10.07
2019-04-25T01:15:21.389Z,10.03
2019-04-25T01:20:15.848Z,10.01
2019-04-25T01:25:10.049Z,9.95
2019-04-25T01:30:06.145Z,9.91
2019-04-25T01:35:17.218Z,9.93
2019-04-25T01:40:18.924Z,9.94
2019-04-25T01:45:14.062Z,9.97
2019-04-25T01:50:08.281Z,9.93
2019-04-25T01:55:05.539Z,9.98
2019-04-25T01:59:59.666Z,9.97
2019-04-25T02:04:56.684Z,9.97
2019-04-25T02:09:50.024Z,10.02
2019-04-25T02:14:44.702Z,10.01
2019-04-25T02:19:38.788Z,9.97
2019-04-25T02:24:33.867Z,9.96
2019-04-25T02:29:28.110Z,9.97
2019-04-25T02:34:22.093Z,9.94
2019-04-25T02:39:17.721Z,10.04
2019-04-25T02:44:14.441Z,10.01
2019-04-25T02:49:35.426Z,9.97
2019-04-25T02:54:24.636Z,9.94
2019-04-25T02:59:18.741Z,9.91
2019-04-25T03:04:14.445Z,9.96
2019-04-25T03:09:10.697Z,9.93
2019-04-25T03:14:06.982Z,9.90
2019-04-25T03:19:04.795Z,9.88
2019-04-25T03:23:59.603Z,9.92
2019-04-25T03:28:54.557Z,9.98
2019-04-25T03:33:48.660Z,9.95
2019-04-25T03:38:44.083Z,9.88
2019-04-25T03:43:38.183Z,9.92
2019-04-25T03:48:35.168Z,9.91
2019-04-25T03:53:28.007Z,9.88
2019-04-25T03:58:21.968Z,9.86
2019-04-25T04:03:15.925Z,9.92
2019-04-25T04:08:09.889Z,9.86
2019-04-25T04:13:05.158Z,9.85
2019-04-25T04:18:01.660Z,9.81
2019-04-25T04:23:07.187Z,9.82
2019-04-25T04:28:01.189Z,9.88
2019-04-25T04:32:55.159Z,9.93
2019-04-25T04:37:49.230Z,9.96
2019-04-25T04:42:43.543Z,10.01
2019-04-25T04:47:37.527Z,10.13
2019-04-25T04:52:31.589Z,10.23
2019-04-25T04:57:31.922Z,10.41
2019-04-25T05:02:35.464Z,10.56
2019-04-25T05:07:46.426Z,10.69
2019-04-25T05:12:40.407Z,10.86
2019-04-25T05:17:34.383Z,11.01
2019-04-25T05:22:28.392Z,11.00
2019-04-25T05:27:37.173Z,11.02
2019-04-25T05:32:19.217Z,11.72
2019-04-25T05:37:14.399Z,12.46
2019-04-25T05:42:29.044Z,11.99
2019-04-25T05:47:25.760Z,11.77
2019-04-25T05:52:19.838Z,11.73
2019-04-25T05:57:13.965Z,11.85
2019-04-25T06:02:07.989Z,12.03
2019-04-25T06:07:02.193Z,12.22
2019-04-25T06:12:14.836Z,12.37
2019-04-25T06:17:10.721Z,12.61
2019-04-25T06:22:06.674Z,12.83
2019-04-25T06:27:14.907Z,12.84
2019-04-25T06:32:09.006Z,12.94
2019-04-25T06:37:04.762Z,12.96
2019-04-25T06:41:59.242Z,13.19
2019-04-25T06:46:58.273Z,13.26
2019-04-25T06:51:54.636Z,13.39
2019-04-25T06:56:48.907Z,13.57
2019-04-25T07:01:44.000Z,13.71
2019-04-25T07:06:38.179Z,13.85
2019-04-25T07:11:32.960Z,14.06
2019-04-25T07:16:28.026Z,14.10
2019-04-25T07:21:24.020Z,14.26
2019-04-25T07:26:20.143Z,14.30
2019-04-25T07:31:31.321Z,14.27
2019-04-25T07:36:25.755Z,14.57
2019-04-25T07:41:20.064Z,14.60
2019-04-25T07:46:13.996Z,14.72
2019-04-25T07:51:08.215Z,15.01
2019-04-25T07:56:04.253Z,15.49
2019-04-25T08:00:58.495Z,15.44
2019-04-25T08:05:53.392Z,15.20
2019-04-25T08:11:00.791Z,15.01
2019-04-25T08:16:03.424Z,14.89
2019-04-25T08:20:57.928Z,14.96
2019-04-25T08:25:51.883Z,15.17
2019-04-25T08:30:45.898Z,15.29
2019-04-25T08:35:39.862Z,15.45
2019-04-25T08:40:35.752Z,15.97
2019-04-25T08:45:30.642Z,16.67
2019-04-25T08:50:32.983Z,16.61
2019-04-25T08:55:45.750Z,16.82
2019-04-25T09:01:01.375Z,17.22
2019-04-25T09:05:54.973Z,17.62
2019-04-25T09:10:49.680Z,17.54
2019-04-25T09:15:45.585Z,17.32
2019-04-25T09:20:42.062Z,17.43
2019-04-25T09:25:36.722Z,17.73
2019-04-25T09:30:31.072Z,17.69
2019-04-25T09:35:25.052Z,17.38
2019-04-25T09:40:19.228Z,17.23
2019-04-25T09:45:30.696Z,17.32
2019-04-25T09:50:35.554Z,17.55
2019-04-25T09:55:49.544Z,17.31
2019-04-25T10:00:46.006Z,17.95
2019-04-25T10:05:40.408Z,18.79
2019-04-25T10:10:34.470Z,19.10
2019-04-25T10:15:47.966Z,19.56
2019-04-25T10:20:43.469Z,20.06
2019-04-25T10:25:38.453Z,20.23
2019-04-25T10:30:34.196Z,20.37
2019-04-25T10:35:28.659Z,20.89
2019-04-25T10:40:25.003Z,23.23
2019-04-25T10:45:23.238Z,23.77
2019-04-25T10:50:15.278Z,22.69
2019-04-25T10:55:09.867Z,24.21
2019-04-25T11:00:20.476Z,26.75
2019-04-25T11:05:16.467Z,22.08
2019-04-25T11:10:10.677Z,21.61
2019-04-25T11:15:05.383Z,20.27
2019-04-25T11:19:59.417Z,20.49
2019-04-25T11:24:53.404Z,20.73
2019-04-25T11:29:47.518Z,20.79
2019-04-25T11:34:43.143Z,22.19
2019-04-25T11:39:44.374Z,23.70
2019-04-25T11:44:38.410Z,25.53
2019-04-25T11:49:34.026Z,26.81
2019-04-25T11:54:28.105Z,28.32
2019-04-25T11:59:23.536Z,28.26
2019-04-25T12:04:17.536Z,29.08
2019-04-25T12:09:11.599Z,29.78
2019-04-25T12:14:05.706Z,29.00
2019-04-25T12:18:59.696Z,28.03
2019-04-25T12:23:53.799Z,28.22
2019-04-25T12:28:47.943Z,30.20
2019-04-25T12:33:43.374Z,29.56
2019-04-25T12:38:38.024Z,29.22
2019-04-25T12:43:33.977Z,27.05
2019-04-25T12:48:28.053Z,26.88
2019-04-25T12:53:23.583Z,25.44
2019-04-25T12:58:17.609Z,25.95
2019-04-25T13:03:11.652Z,25.26
2019-04-25T13:08:05.747Z,25.82
2019-04-25T13:12:59.908Z,25.77
2019-04-25T13:17:54.002Z,25.24
2019-04-25T13:22:48.191Z,26.50
2019-04-25T13:27:53.299Z,27.40
2019-04-25T13:33:06.508Z,27.56
2019-04-25T13:38:01.349Z,25.80
2019-04-25T13:42:56.437Z,25.09
2019-04-25T13:47:50.545Z,24.52
2019-04-25T13:52:44.626Z,24.46
2019-04-25T13:57:38.749Z,25.18
2019-04-25T14:02:32.823Z,25.65
2019-04-25T14:07:27.314Z,27.28
2019-04-25T14:12:21.642Z,27.13
2019-04-25T14:17:26.306Z,26.29
2019-04-25T14:22:21.028Z,26.63
2019-04-25T14:27:15.689Z,26.23
2019-04-25T14:32:11.664Z,24.61
2019-04-25T14:37:05.610Z,23.77
2019-04-25T14:41:59.730Z,22.81
2019-04-25T14:46:53.775Z,23.06
2019-04-25T14:51:47.844Z,22.80
2019-04-25T14:56:43.847Z,22.77
2019-04-25T15:01:45.039Z,22.42
2019-04-25T15:06:33.981Z,22.58
2019-04-25T15:11:29.064Z,22.85
2019-04-25T15:16:23.578Z,22.66
2019-04-25T15:21:18.863Z,22.75
2019-04-25T15:26:13.007Z,22.36
2019-04-25T15:31:07.089Z,22.42
2019-04-25T15:36:03.150Z,22.56
2019-04-25T15:40:59.063Z,22.41
2019-04-25T15:45:55.051Z,22.54
2019-04-25T15:50:50.343Z,22.45
2019-04-25T15:55:45.580Z,22.45
2019-04-25T16:00:40.087Z,22.12
2019-04-25T16:05:35.534Z,21.97
2019-04-25T16:10:29.932Z,21.97
2019-04-25T16:15:24.060Z,21.84
2019-04-25T16:20:18.627Z,21.60
2019-04-25T16:25:12.726Z,21.42
2019-04-25T16:30:07.574Z,21.31
2019-04-25T16:35:02.132Z,21.22
2019-04-25T16:39:56.221Z,21.17
2019-04-25T16:44:50.318Z,20.64
2019-04-25T16:49:44.383Z,20.11
2019-04-25T16:54:38.371Z,19.68
2019-04-25T16:59:33.563Z,19.39
2019-04-25T17:04:29.750Z,19.40
2019-04-25T17:09:23.956Z,19.42
2019-04-25T17:14:19.857Z,19.13
2019-04-25T17:19:15.754Z,19.15
2019-04-25T17:24:09.914Z,18.87
2019-04-25T17:29:06.030Z,18.71
2019-04-25T17:34:08.211Z,18.58
2019-04-25T17:39:18.185Z,18.43
2019-04-25T17:44:12.394Z,18.19
2019-04-25T17:49:06.369Z,17.98
2019-04-25T17:54:00.414Z,17.90
2019-04-25T17:58:54.379Z,17.79
2019-04-25T18:03:48.772Z,17.49
2019-04-25T18:08:42.855Z,17.42
2019-04-25T18:13:38.805Z,17.29
2019-04-25T18:18:35.421Z,17.16
2019-04-25T18:23:48.232Z,17.14
2019-04-25T18:28:47.058Z,17.05
2019-04-25T18:33:41.826Z,17.09
2019-04-25T18:38:47.089Z,16.84
2019-04-25T18:43:52.303Z,16.60
2019-04-25T18:48:46.978Z,16.28
2019-04-25T18:53:45.806Z,16.12
2019-04-25T18:58:41.910Z,15.99
2019-04-25T19:03:41.562Z,15.80
2019-04-25T19:08:35.780Z,15.41
2019-04-25T19:13:29.858Z,15.30
2019-04-25T19:18:24.077Z,15.14
2019-04-25T19:23:18.274Z,14.79
2019-04-25T19:28:12.267Z,14.64
2019-04-25T19:33:07.616Z,14.46
2019-04-25T19:38:02.067Z,14.46
2019-04-25T19:43:00.871Z,14.52
2019-04-25T19:47:54.957Z,14.45
2019-04-25T19:52:49.748Z,14.31
2019-04-25T19:57:44.244Z,14.52
2019-04-25T20:02:40.161Z,14.60
2019-04-25T20:07:46.615Z,14.52
2019-04-25T20:12:44.002Z,14.37
2019-04-25T20:17:38.594Z,14.48
2019-04-25T20:22:32.690Z,14.41
2019-04-25T20:27:26.764Z,14.36
2019-04-25T20:32:20.920Z,14.34
2019-04-25T20:37:15.128Z,14.22
2019-04-25T20:42:09.275Z,14.29
2019-04-25T20:47:03.461Z,14.26
2019-04-25T20:51:57.542Z,14.23
2019-04-25T20:56:51.755Z,14.15
2019-04-25T21:01:45.933Z,14.23
2019-04-25T21:06:40.517Z,14.20
2019-04-25T21:11:34.565Z,14.12
2019-04-25T21:16:46.338Z,14.10
2019-04-25T21:21:40.417Z,14.01
2019-04-25T21:26:34.640Z,13.90
2019-04-25T21:31:28.741Z,13.84
2019-04-25T21:36:22.761Z,13.81
2019-04-25T21:41:21.697Z,13.85
2019-04-25T21:46:16.125Z,13.78
2019-04-25T21:51:28.980Z,13.78
2019-04-25T21:56:23.146Z,13.77
2019-04-25T22:01:19.825Z,13.79
2019-04-25T22:06:13.848Z,13.81
2019-04-25T22:11:08.546Z,13.75
2019-04-25T22:16:04.016Z,13.76
2019-04-25T22:20:58.503Z,13.81
2019-04-25T22:25:52.478Z,13.78
2019-04-25T22:30:48.828Z,13.77
2019-04-25T22:35:47.712Z,13.66
2019-04-25T22:40:42.287Z,13.66
2019-04-25T22:45:36.699Z,13.63
2019-04-25T22:50:30.679Z,13.48
2019-04-25T22:55:24.803Z,13.42
2019-04-25T23:00:29.714Z,13.26
2019-04-25T23:05:28.776Z,13.16
2019-04-25T23:10:23.189Z,13.07
2019-04-25T23:15:17.253Z,13.16
2019-04-25T23:20:11.806Z,13.14
2019-04-25T23:25:08.334Z,13.06
2019-04-25T23:30:05.694Z,13.03
2019-04-25T23:35:00.615Z,13.05
2019-04-25T23:39:54.688Z,13.01
2019-04-25T23:44:48.683Z,12.87
2019-04-25T23:49:42.648Z,12.75
2019-04-25T23:54:37.064Z,12.68
2019-04-25T23:59:31.272Z,12.60
